Terminal Aerodrome Forecast
Issued by NWS

Home | Current Version | Previous Version | Text Only | Print | Product List | Glossary On
Versions: 1 2 3 4 5 6 7 8 9 10 11 12 13 14
000
FTUS45 KPSR 231738
TAFIWA
TAF
KIWA 231738Z 2318/2418 VRB04KT P6SM FEW120 SCT250
     FM231900 23007KT P6SM FEW100 SCT250
     FM240200 15015G24KT 6SM BLDU VCTS FEW080 BKN100CB BKN200
     FM240400 14012KT P6SM VCSH SCT080 BKN100 BKN200
     FM240700 12006KT P6SM SCT100 BKN120 BKN200=

USA.gov is the U.S. government's official web portal to all federal, state and local government web resources and services.